sensor_id;sensor_type;location;lat;lon;timestamp;P1;durP1;ratioP1;P2;durP2;ratioP2
2187;SDS011;1100;52.014;8.540;2023-02-15T00:01:07;22.07;;;9.60;;
2187;SDS011;1100;52.014;8.540;2023-02-15T00:03:33;21.00;;;9.73;;
2187;SDS011;1100;52.014;8.540;2023-02-15T00:05:58;19.92;;;9.65;;
2187;SDS011;1100;52.014;8.540;2023-02-15T00:08:24;20.33;;;9.33;;
2187;SDS011;1100;52.014;8.540;2023-02-15T00:10:49;19.80;;;9.27;;
2187;SDS011;1100;52.014;8.540;2023-02-15T00:13:14;20.57;;;9.33;;
2187;SDS011;1100;52.014;8.540;2023-02-15T00:15:40;20.73;;;8.63;;
2187;SDS011;1100;52.014;8.540;2023-02-15T00:18:05;19.03;;;9.03;;
2187;SDS011;1100;52.014;8.540;2023-02-15T00:20:30;23.58;;;9.80;;
2187;SDS011;1100;52.014;8.540;2023-02-15T00:22:56;20.67;;;9.63;;
2187;SDS011;1100;52.014;8.540;2023-02-15T00:25:21;19.20;;;8.80;;
2187;SDS011;1100;52.014;8.540;2023-02-15T00:27:46;22.77;;;9.53;;
2187;SDS011;1100;52.014;8.540;2023-02-15T00:30:12;20.80;;;9.03;;
2187;SDS011;1100;52.014;8.540;2023-02-15T00:32:37;21.27;;;8.70;;
2187;SDS011;1100;52.014;8.540;2023-02-15T00:35:02;18.33;;;8.73;;
2187;SDS011;1100;52.014;8.540;2023-02-15T00:37:28;19.85;;;9.50;;
2187;SDS011;1100;52.014;8.540;2023-02-15T00:39:53;23.10;;;10.17;;
2187;SDS011;1100;52.014;8.540;2023-02-15T00:42:19;19.50;;;8.97;;
2187;SDS011;1100;52.014;8.540;2023-02-15T00:44:44;20.10;;;9.07;;
2187;SDS011;1100;52.014;8.540;2023-02-15T00:47:09;19.73;;;8.97;;
2187;SDS011;1100;52.014;8.540;2023-02-15T00:49:34;20.20;;;8.83;;
2187;SDS011;1100;52.014;8.540;2023-02-15T00:52:00;17.93;;;8.40;;
2187;SDS011;1100;52.014;8.540;2023-02-15T00:54:25;19.08;;;8.80;;
2187;SDS011;1100;52.014;8.540;2023-02-15T00:56:50;22.07;;;9.30;;
2187;SDS011;1100;52.014;8.540;2023-02-15T00:59:16;20.67;;;8.90;;
2187;SDS011;1100;52.014;8.540;2023-02-15T01:01:41;23.73;;;10.53;;
2187;SDS011;1100;52.014;8.540;2023-02-15T01:04:06;20.60;;;8.53;;
2187;SDS011;1100;52.014;8.540;2023-02-15T01:06:32;20.03;;;9.17;;
2187;SDS011;1100;52.014;8.540;2023-02-15T01:08:57;20.67;;;8.40;;
2187;SDS011;1100;52.014;8.540;2023-02-15T01:11:22;22.67;;;9.70;;
2187;SDS011;1100;52.014;8.540;2023-02-15T01:13:52;19.85;;;8.88;;
2187;SDS011;1100;52.014;8.540;2023-02-15T01:16:19;18.93;;;8.73;;
2187;SDS011;1100;52.014;8.540;2023-02-15T01:18:44;22.00;;;9.35;;
2187;SDS011;1100;52.014;8.540;2023-02-15T01:21:13;21.13;;;9.13;;
2187;SDS011;1100;52.014;8.540;2023-02-15T01:23:41;18.75;;;7.95;;
2187;SDS011;1100;52.014;8.540;2023-02-15T01:26:08;20.30;;;8.93;;
2187;SDS011;1100;52.014;8.540;2023-02-15T01:28:34;18.85;;;8.73;;
2187;SDS011;1100;52.014;8.540;2023-02-15T01:31:03;21.07;;;8.73;;
2187;SDS011;1100;52.014;8.540;2023-02-15T01:33:42;18.52;;;8.38;;
2187;SDS011;1100;52.014;8.540;2023-02-15T01:36:07;18.43;;;8.93;;
2187;SDS011;1100;52.014;8.540;2023-02-15T01:38:33;18.87;;;8.50;;
2187;SDS011;1100;52.014;8.540;2023-02-15T01:41:00;20.27;;;8.25;;
2187;SDS011;1100;52.014;8.540;2023-02-15T01:43:44;18.30;;;8.27;;
2187;SDS011;1100;52.014;8.540;2023-02-15T01:46:12;19.20;;;8.90;;
2187;SDS011;1100;52.014;8.540;2023-02-15T01:48:46;22.88;;;9.20;;
2187;SDS011;1100;52.014;8.540;2023-02-15T01:51:15;22.10;;;8.83;;
2187;SDS011;1100;52.014;8.540;2023-02-15T01:53:57;20.75;;;8.98;;
2187;SDS011;1100;52.014;8.540;2023-02-15T01:56:27;20.27;;;8.65;;
2187;SDS011;1100;52.014;8.540;2023-02-15T01:58:59;21.55;;;8.80;;
2187;SDS011;1100;52.014;8.540;2023-02-15T02:01:30;17.60;;;7.85;;
2187;SDS011;1100;52.014;8.540;2023-02-15T02:03:57;20.47;;;9.10;;
2187;SDS011;1100;52.014;8.540;2023-02-15T02:06:30;20.85;;;8.57;;
2187;SDS011;1100;52.014;8.540;2023-02-15T02:08:57;19.33;;;8.73;;
2187;SDS011;1100;52.014;8.540;2023-02-15T02:11:23;20.40;;;8.90;;
2187;SDS011;1100;52.014;8.540;2023-02-15T02:13:48;19.30;;;8.90;;
2187;SDS011;1100;52.014;8.540;2023-02-15T02:22:02;22.13;;;8.68;;
2187;SDS011;1100;52.014;8.540;2023-02-15T02:33:07;18.73;;;8.38;;
2187;SDS011;1100;52.014;8.540;2023-02-15T02:43:38;18.05;;;8.48;;
2187;SDS011;1100;52.014;8.540;2023-02-15T02:46:17;20.58;;;8.27;;
2187;SDS011;1100;52.014;8.540;2023-02-15T02:48:47;18.85;;;8.63;;
2187;SDS011;1100;52.014;8.540;2023-02-15T02:51:14;17.10;;;7.53;;
2187;SDS011;1100;52.014;8.540;2023-02-15T02:53:46;18.93;;;8.17;;
2187;SDS011;1100;52.014;8.540;2023-02-15T02:56:18;19.17;;;8.57;;
2187;SDS011;1100;52.014;8.540;2023-02-15T02:58:49;19.33;;;8.35;;
2187;SDS011;1100;52.014;8.540;2023-02-15T03:01:24;19.55;;;8.20;;
2187;SDS011;1100;52.014;8.540;2023-02-15T03:03:58;18.77;;;8.63;;
2187;SDS011;1100;52.014;8.540;2023-02-15T03:09:45;20.85;;;8.18;;
2187;SDS011;1100;52.014;8.540;2023-02-15T03:12:13;18.52;;;7.82;;
2187;SDS011;1100;52.014;8.540;2023-02-15T03:14:41;17.92;;;8.15;;
2187;SDS011;1100;52.014;8.540;2023-02-15T03:17:09;16.73;;;8.07;;
2187;SDS011;1100;52.014;8.540;2023-02-15T03:19:36;17.63;;;7.43;;
2187;SDS011;1100;52.014;8.540;2023-02-15T03:22:05;19.27;;;7.88;;
2187;SDS011;1100;52.014;8.540;2023-02-15T03:24:49;18.02;;;8.15;;
2187;SDS011;1100;52.014;8.540;2023-02-15T03:27:23;16.50;;;7.65;;
2187;SDS011;1100;52.014;8.540;2023-02-15T03:29:53;17.27;;;8.13;;
2187;SDS011;1100;52.014;8.540;2023-02-15T03:32:22;19.03;;;7.67;;
2187;SDS011;1100;52.014;8.540;2023-02-15T03:34:50;17.88;;;7.47;;
2187;SDS011;1100;52.014;8.540;2023-02-15T03:37:18;19.10;;;8.03;;
2187;SDS011;1100;52.014;8.540;2023-02-15T03:39:53;19.63;;;7.70;;
2187;SDS011;1100;52.014;8.540;2023-02-15T03:42:43;20.75;;;8.50;;
2187;SDS011;1100;52.014;8.540;2023-02-15T03:45:11;18.25;;;7.88;;
2187;SDS011;1100;52.014;8.540;2023-02-15T03:47:43;19.48;;;7.93;;
2187;SDS011;1100;52.014;8.540;2023-02-15T03:53:05;19.58;;;8.80;;
2187;SDS011;1100;52.014;8.540;2023-02-15T03:55:34;20.13;;;8.13;;
2187;SDS011;1100;52.014;8.540;2023-02-15T03:58:00;19.42;;;8.30;;
2187;SDS011;1100;52.014;8.540;2023-02-15T04:00:58;19.15;;;7.88;;
2187;SDS011;1100;52.014;8.540;2023-02-15T04:04:00;22.67;;;8.17;;
2187;SDS011;1100;52.014;8.540;2023-02-15T04:06:34;22.10;;;8.45;;
2187;SDS011;1100;52.014;8.540;2023-02-15T04:08:59;20.80;;;8.80;;
2187;SDS011;1100;52.014;8.540;2023-02-15T04:11:43;19.45;;;7.80;;
2187;SDS011;1100;52.014;8.540;2023-02-15T04:14:08;20.37;;;8.67;;
2187;SDS011;1100;52.014;8.540;2023-02-15T04:16:52;21.50;;;8.18;;
2187;SDS011;1100;52.014;8.540;2023-02-15T04:19:18;21.03;;;8.70;;
2187;SDS011;1100;52.014;8.540;2023-02-15T04:22:01;24.30;;;9.07;;
2187;SDS011;1100;52.014;8.540;2023-02-15T04:24:46;20.55;;;8.13;;
2187;SDS011;1100;52.014;8.540;2023-02-15T04:27:33;20.65;;;9.07;;
2187;SDS011;1100;52.014;8.540;2023-02-15T04:29:58;18.67;;;8.53;;
2187;SDS011;1100;52.014;8.540;2023-02-15T04:32:23;21.33;;;8.30;;
2187;SDS011;1100;52.014;8.540;2023-02-15T04:34:48;24.33;;;8.97;;
2187;SDS011;1100;52.014;8.540;2023-02-15T04:37:14;18.13;;;7.97;;
2187;SDS011;1100;52.014;8.540;2023-02-15T04:39:39;24.10;;;8.73;;
2187;SDS011;1100;52.014;8.540;2023-02-15T04:42:04;22.67;;;8.70;;
2187;SDS011;1100;52.014;8.540;2023-02-15T04:44:30;22.60;;;8.63;;
2187;SDS011;1100;52.014;8.540;2023-02-15T04:46:55;21.57;;;8.30;;
2187;SDS011;1100;52.014;8.540;2023-02-15T04:49:20;18.93;;;7.77;;
2187;SDS011;1100;52.014;8.540;2023-02-15T04:51:46;21.53;;;8.10;;
2187;SDS011;1100;52.014;8.540;2023-02-15T04:54:11;22.13;;;8.77;;
2187;SDS011;1100;52.014;8.540;2023-02-15T04:56:36;21.37;;;8.73;;
2187;SDS011;1100;52.014;8.540;2023-02-15T04:59:03;22.50;;;8.55;;
2187;SDS011;1100;52.014;8.540;2023-02-15T05:01:29;21.53;;;8.80;;
2187;SDS011;1100;52.014;8.540;2023-02-15T05:03:54;21.90;;;8.70;;
2187;SDS011;1100;52.014;8.540;2023-02-15T05:06:20;23.40;;;8.93;;
2187;SDS011;1100;52.014;8.540;2023-02-15T05:08:45;22.63;;;8.82;;
2187;SDS011;1100;52.014;8.540;2023-02-15T05:11:10;22.03;;;8.97;;
2187;SDS011;1100;52.014;8.540;2023-02-15T05:13:35;24.80;;;9.93;;
2187;SDS011;1100;52.014;8.540;2023-02-15T05:16:01;24.33;;;9.43;;
2187;SDS011;1100;52.014;8.540;2023-02-15T05:18:26;23.13;;;9.47;;
2187;SDS011;1100;52.014;8.540;2023-02-15T05:20:51;20.97;;;8.23;;
2187;SDS011;1100;52.014;8.540;2023-02-15T05:23:17;23.97;;;9.30;;
2187;SDS011;1100;52.014;8.540;2023-02-15T05:25:46;20.35;;;8.60;;
2187;SDS011;1100;52.014;8.540;2023-02-15T05:28:34;22.93;;;8.73;;
2187;SDS011;1100;52.014;8.540;2023-02-15T05:31:34;22.50;;;9.18;;
2187;SDS011;1100;52.014;8.540;2023-02-15T05:33:52;21.92;;;8.93;;
2187;SDS011;1100;52.014;8.540;2023-02-15T05:36:17;23.63;;;8.83;;
2187;SDS011;1100;52.014;8.540;2023-02-15T05:38:43;25.03;;;9.33;;
2187;SDS011;1100;52.014;8.540;2023-02-15T05:41:09;23.17;;;8.87;;
2187;SDS011;1100;52.014;8.540;2023-02-15T05:43:35;23.85;;;9.15;;
2187;SDS011;1100;52.014;8.540;2023-02-15T05:46:02;22.55;;;9.48;;
2187;SDS011;1100;52.014;8.540;2023-02-15T05:48:27;21.70;;;9.13;;
2187;SDS011;1100;52.014;8.540;2023-02-15T05:50:57;22.67;;;8.47;;
2187;SDS011;1100;52.014;8.540;2023-02-15T05:53:22;19.42;;;8.65;;
2187;SDS011;1100;52.014;8.540;2023-02-15T05:55:47;21.77;;;8.90;;
2187;SDS011;1100;52.014;8.540;2023-02-15T05:58:13;20.47;;;7.97;;
2187;SDS011;1100;52.014;8.540;2023-02-15T06:00:38;23.70;;;9.70;;
2187;SDS011;1100;52.014;8.540;2023-02-15T06:03:03;22.80;;;9.03;;
2187;SDS011;1100;52.014;8.540;2023-02-15T06:05:29;22.70;;;8.50;;
2187;SDS011;1100;52.014;8.540;2023-02-15T06:07:54;24.90;;;8.73;;
2187;SDS011;1100;52.014;8.540;2023-02-15T06:10:19;22.13;;;7.97;;
2187;SDS011;1100;52.014;8.540;2023-02-15T06:12:45;24.45;;;8.52;;
2187;SDS011;1100;52.014;8.540;2023-02-15T06:15:10;24.77;;;9.27;;
2187;SDS011;1100;52.014;8.540;2023-02-15T06:17:35;20.77;;;8.30;;
2187;SDS011;1100;52.014;8.540;2023-02-15T06:20:00;19.63;;;8.17;;
2187;SDS011;1100;52.014;8.540;2023-02-15T06:22:26;23.07;;;9.47;;
2187;SDS011;1100;52.014;8.540;2023-02-15T06:24:51;22.77;;;8.83;;
2187;SDS011;1100;52.014;8.540;2023-02-15T06:27:16;20.53;;;8.37;;
2187;SDS011;1100;52.014;8.540;2023-02-15T06:29:42;23.97;;;8.77;;
2187;SDS011;1100;52.014;8.540;2023-02-15T06:32:07;22.80;;;8.63;;
2187;SDS011;1100;52.014;8.540;2023-02-15T06:34:32;24.20;;;8.57;;
2187;SDS011;1100;52.014;8.540;2023-02-15T06:36:58;23.30;;;8.37;;
2187;SDS011;1100;52.014;8.540;2023-02-15T06:39:23;23.37;;;8.73;;
2187;SDS011;1100;52.014;8.540;2023-02-15T06:41:49;21.20;;;8.37;;
2187;SDS011;1100;52.014;8.540;2023-02-15T06:44:14;21.27;;;8.33;;
2187;SDS011;1100;52.014;8.540;2023-02-15T06:46:39;20.90;;;8.55;;
2187;SDS011;1100;52.014;8.540;2023-02-15T06:49:05;20.40;;;8.33;;
2187;SDS011;1100;52.014;8.540;2023-02-15T06:51:30;22.90;;;9.33;;
2187;SDS011;1100;52.014;8.540;2023-02-15T06:53:56;24.53;;;8.80;;
2187;SDS011;1100;52.014;8.540;2023-02-15T06:56:21;23.55;;;9.10;;
2187;SDS011;1100;52.014;8.540;2023-02-15T06:58:47;25.17;;;8.70;;
2187;SDS011;1100;52.014;8.540;2023-02-15T07:01:14;24.13;;;9.55;;
2187;SDS011;1100;52.014;8.540;2023-02-15T07:03:40;24.90;;;9.67;;
2187;SDS011;1100;52.014;8.540;2023-02-15T07:06:05;22.23;;;8.40;;
2187;SDS011;1100;52.014;8.540;2023-02-15T07:08:33;21.33;;;8.60;;
2187;SDS011;1100;52.014;8.540;2023-02-15T07:10:59;22.00;;;8.13;;
2187;SDS011;1100;52.014;8.540;2023-02-15T07:13:43;23.38;;;8.77;;
2187;SDS011;1100;52.014;8.540;2023-02-15T07:16:12;22.63;;;8.93;;
2187;SDS011;1100;52.014;8.540;2023-02-15T07:18:38;24.50;;;8.60;;
2187;SDS011;1100;52.014;8.540;2023-02-15T07:21:04;24.85;;;8.77;;
2187;SDS011;1100;52.014;8.540;2023-02-15T07:23:32;24.15;;;9.25;;
2187;SDS011;1100;52.014;8.540;2023-02-15T07:25:59;21.85;;;8.80;;
2187;SDS011;1100;52.014;8.540;2023-02-15T07:28:25;22.07;;;8.37;;
2187;SDS011;1100;52.014;8.540;2023-02-15T07:30:50;22.75;;;8.50;;
2187;SDS011;1100;52.014;8.540;2023-02-15T07:33:16;21.37;;;8.60;;
2187;SDS011;1100;52.014;8.540;2023-02-15T07:35:51;22.75;;;8.32;;
2187;SDS011;1100;52.014;8.540;2023-02-15T07:38:19;23.85;;;9.15;;
2187;SDS011;1100;52.014;8.540;2023-02-15T07:40:44;21.93;;;8.77;;
2187;SDS011;1100;52.014;8.540;2023-02-15T07:43:10;20.97;;;8.53;;
2187;SDS011;1100;52.014;8.540;2023-02-15T07:45:36;24.73;;;9.13;;
2187;SDS011;1100;52.014;8.540;2023-02-15T07:48:02;25.48;;;9.30;;
2187;SDS011;1100;52.014;8.540;2023-02-15T07:50:31;25.25;;;9.27;;
2187;SDS011;1100;52.014;8.540;2023-02-15T07:52:57;24.35;;;9.05;;
2187;SDS011;1100;52.014;8.540;2023-02-15T07:55:22;24.23;;;9.37;;
2187;SDS011;1100;52.014;8.540;2023-02-15T07:57:48;23.10;;;9.07;;
2187;SDS011;1100;52.014;8.540;2023-02-15T08:00:15;24.40;;;10.00;;
2187;SDS011;1100;52.014;8.540;2023-02-15T08:02:49;23.27;;;9.00;;
2187;SDS011;1100;52.014;8.540;2023-02-15T08:05:37;22.90;;;9.15;;
2187;SDS011;1100;52.014;8.540;2023-02-15T08:08:02;23.73;;;9.63;;
2187;SDS011;1100;52.014;8.540;2023-02-15T08:10:28;26.77;;;10.67;;
2187;SDS011;1100;52.014;8.540;2023-02-15T08:13:12;21.30;;;9.65;;
2187;SDS011;1100;52.014;8.540;2023-02-15T08:15:37;21.20;;;8.27;;
2187;SDS011;1100;52.014;8.540;2023-02-15T08:18:03;21.97;;;9.03;;
2187;SDS011;1100;52.014;8.540;2023-02-15T08:20:28;20.52;;;8.95;;
2187;SDS011;1100;52.014;8.540;2023-02-15T08:22:56;17.23;;;7.83;;
2187;SDS011;1100;52.014;8.540;2023-02-15T08:25:21;17.93;;;7.60;;
2187;SDS011;1100;52.014;8.540;2023-02-15T08:27:47;18.45;;;8.05;;
2187;SDS011;1100;52.014;8.540;2023-02-15T08:30:12;17.40;;;7.47;;
2187;SDS011;1100;52.014;8.540;2023-02-15T08:32:39;17.10;;;7.75;;
2187;SDS011;1100;52.014;8.540;2023-02-15T08:35:04;16.37;;;7.33;;
2187;SDS011;1100;52.014;8.540;2023-02-15T08:37:32;16.40;;;7.47;;
2187;SDS011;1100;52.014;8.540;2023-02-15T08:39:57;15.63;;;7.10;;
2187;SDS011;1100;52.014;8.540;2023-02-15T08:42:23;15.40;;;7.10;;
2187;SDS011;1100;52.014;8.540;2023-02-15T08:44:48;17.00;;;7.47;;
2187;SDS011;1100;52.014;8.540;2023-02-15T08:47:16;15.52;;;7.50;;
2187;SDS011;1100;52.014;8.540;2023-02-15T08:49:41;16.00;;;7.67;;
2187;SDS011;1100;52.014;8.540;2023-02-15T08:52:07;16.53;;;7.63;;
2187;SDS011;1100;52.014;8.540;2023-02-15T08:54:32;16.47;;;7.53;;
2187;SDS011;1100;52.014;8.540;2023-02-15T08:56:58;17.27;;;8.63;;
2187;SDS011;1100;52.014;8.540;2023-02-15T08:59:24;17.63;;;7.55;;
2187;SDS011;1100;52.014;8.540;2023-02-15T09:01:52;18.02;;;8.60;;
2187;SDS011;1100;52.014;8.540;2023-02-15T09:04:17;16.20;;;8.27;;
2187;SDS011;1100;52.014;8.540;2023-02-15T09:06:44;18.93;;;7.93;;
2187;SDS011;1100;52.014;8.540;2023-02-15T09:09:11;17.23;;;7.68;;
2187;SDS011;1100;52.014;8.540;2023-02-15T09:11:37;19.33;;;8.70;;
2187;SDS011;1100;52.014;8.540;2023-02-15T09:14:18;17.98;;;8.13;;
2187;SDS011;1100;52.014;8.540;2023-02-15T09:16:49;19.15;;;8.23;;
2187;SDS011;1100;52.014;8.540;2023-02-15T09:19:16;18.03;;;8.50;;
2187;SDS011;1100;52.014;8.540;2023-02-15T09:21:43;17.30;;;7.63;;
2187;SDS011;1100;52.014;8.540;2023-02-15T09:24:09;17.53;;;8.13;;
2187;SDS011;1100;52.014;8.540;2023-02-15T09:26:40;17.13;;;7.57;;
2187;SDS011;1100;52.014;8.540;2023-02-15T09:29:07;16.95;;;8.13;;
2187;SDS011;1100;52.014;8.540;2023-02-15T09:31:37;15.75;;;7.35;;
2187;SDS011;1100;52.014;8.540;2023-02-15T09:34:06;16.67;;;7.70;;
2187;SDS011;1100;52.014;8.540;2023-02-15T09:36:32;14.70;;;7.77;;
2187;SDS011;1100;52.014;8.540;2023-02-15T09:50:02;16.30;;;7.75;;
2187;SDS011;1100;52.014;8.540;2023-02-15T09:52:35;16.80;;;7.85;;
2187;SDS011;1100;52.014;8.540;2023-02-15T09:55:16;17.13;;;8.27;;
2187;SDS011;1100;52.014;8.540;2023-02-15T10:03:11;17.85;;;8.35;;
2187;SDS011;1100;52.014;8.540;2023-02-15T10:05:50;17.75;;;8.68;;
2187;SDS011;1100;52.014;8.540;2023-02-15T10:08:31;15.27;;;7.50;;
2187;SDS011;1100;52.014;8.540;2023-02-15T10:17:08;17.73;;;7.88;;
2187;SDS011;1100;52.014;8.540;2023-02-15T10:28:38;16.92;;;7.75;;
2187;SDS011;1100;52.014;8.540;2023-02-15T10:31:14;15.70;;;7.63;;
2187;SDS011;1100;52.014;8.540;2023-02-15T10:33:47;19.00;;;8.20;;
2187;SDS011;1100;52.014;8.540;2023-02-15T10:55:45;15.55;;;7.55;;
2187;SDS011;1100;52.014;8.540;2023-02-15T11:01:27;16.80;;;7.07;;
2187;SDS011;1100;52.014;8.540;2023-02-15T11:06:53;17.17;;;7.70;;
2187;SDS011;1100;52.014;8.540;2023-02-15T11:09:24;15.10;;;6.82;;
2187;SDS011;1100;52.014;8.540;2023-02-15T11:11:54;15.07;;;6.90;;
2187;SDS011;1100;52.014;8.540;2023-02-15T11:17:19;13.97;;;7.00;;
2187;SDS011;1100;52.014;8.540;2023-02-15T11:20:14;13.98;;;6.88;;
2187;SDS011;1100;52.014;8.540;2023-02-15T11:22:47;13.93;;;6.55;;
2187;SDS011;1100;52.014;8.540;2023-02-15T11:25:17;16.58;;;7.38;;
2187;SDS011;1100;52.014;8.540;2023-02-15T11:27:48;16.67;;;7.32;;
2187;SDS011;1100;52.014;8.540;2023-02-15T11:30:18;14.30;;;7.13;;
2187;SDS011;1100;52.014;8.540;2023-02-15T11:32:50;13.32;;;7.10;;
2187;SDS011;1100;52.014;8.540;2023-02-15T11:38:02;14.98;;;7.18;;
2187;SDS011;1100;52.014;8.540;2023-02-15T11:40:36;16.70;;;7.30;;
2187;SDS011;1100;52.014;8.540;2023-02-15T11:46:01;14.02;;;7.28;;
2187;SDS011;1100;52.014;8.540;2023-02-15T11:48:27;14.40;;;6.70;;
2187;SDS011;1100;52.014;8.540;2023-02-15T11:50:56;15.53;;;7.07;;
2187;SDS011;1100;52.014;8.540;2023-02-15T11:53:21;16.02;;;7.40;;
2187;SDS011;1100;52.014;8.540;2023-02-15T11:55:52;14.63;;;7.60;;
2187;SDS011;1100;52.014;8.540;2023-02-15T12:01:01;14.65;;;7.53;;
2187;SDS011;1100;52.014;8.540;2023-02-15T12:03:44;14.23;;;7.15;;
2187;SDS011;1100;52.014;8.540;2023-02-15T12:06:26;16.08;;;7.78;;
2187;SDS011;1100;52.014;8.540;2023-02-15T12:11:44;15.07;;;7.10;;
2187;SDS011;1100;52.014;8.540;2023-02-15T12:14:10;16.07;;;8.00;;
2187;SDS011;1100;52.014;8.540;2023-02-15T12:16:50;14.82;;;7.07;;
2187;SDS011;1100;52.014;8.540;2023-02-15T12:21:58;14.65;;;7.28;;
2187;SDS011;1100;52.014;8.540;2023-02-15T12:24:32;14.02;;;7.22;;
2187;SDS011;1100;52.014;8.540;2023-02-15T12:27:10;14.77;;;7.17;;
2187;SDS011;1100;52.014;8.540;2023-02-15T12:32:35;14.88;;;7.45;;
2187;SDS011;1100;52.014;8.540;2023-02-15T12:35:24;15.45;;;6.72;;
2187;SDS011;1100;52.014;8.540;2023-02-15T12:37:54;14.25;;;6.93;;
2187;SDS011;1100;52.014;8.540;2023-02-15T12:40:27;16.17;;;6.90;;
2187;SDS011;1100;52.014;8.540;2023-02-15T12:42:53;16.55;;;7.80;;
2187;SDS011;1100;52.014;8.540;2023-02-15T12:45:21;14.40;;;7.55;;
2187;SDS011;1100;52.014;8.540;2023-02-15T12:50:38;15.55;;;6.97;;
2187;SDS011;1100;52.014;8.540;2023-02-15T12:53:06;15.67;;;6.83;;
2187;SDS011;1100;52.014;8.540;2023-02-15T12:55:49;17.30;;;7.18;;
2187;SDS011;1100;52.014;8.540;2023-02-15T12:58:21;12.80;;;6.40;;
2187;SDS011;1100;52.014;8.540;2023-02-15T13:03:33;13.98;;;6.65;;
2187;SDS011;1100;52.014;8.540;2023-02-15T13:06:00;14.67;;;7.00;;
2187;SDS011;1100;52.014;8.540;2023-02-15T13:08:28;15.68;;;7.32;;
2187;SDS011;1100;52.014;8.540;2023-02-15T13:13:27;15.18;;;7.10;;
2187;SDS011;1100;52.014;8.540;2023-02-15T13:15:57;16.10;;;7.50;;
2187;SDS011;1100;52.014;8.540;2023-02-15T13:18:34;15.30;;;6.97;;
2187;SDS011;1100;52.014;8.540;2023-02-15T13:23:46;13.93;;;6.80;;
2187;SDS011;1100;52.014;8.540;2023-02-15T13:26:32;15.65;;;6.85;;
2187;SDS011;1100;52.014;8.540;2023-02-15T13:29:01;15.43;;;7.10;;
2187;SDS011;1100;52.014;8.540;2023-02-15T13:31:39;16.77;;;7.67;;
2187;SDS011;1100;52.014;8.540;2023-02-15T13:36:57;17.50;;;7.75;;
2187;SDS011;1100;52.014;8.540;2023-02-15T13:40:10;15.30;;;7.25;;
2187;SDS011;1100;52.014;8.540;2023-02-15T13:45:31;16.70;;;7.55;;
2187;SDS011;1100;52.014;8.540;2023-02-15T13:48:00;14.77;;;7.00;;
2187;SDS011;1100;52.014;8.540;2023-02-15T13:50:49;13.70;;;7.10;;
2187;SDS011;1100;52.014;8.540;2023-02-15T13:56:02;19.00;;;7.83;;
2187;SDS011;1100;52.014;8.540;2023-02-15T14:04:12;16.52;;;7.90;;
2187;SDS011;1100;52.014;8.540;2023-02-15T14:09:52;16.70;;;7.97;;
2187;SDS011;1100;52.014;8.540;2023-02-15T14:12:24;16.20;;;7.55;;
2187;SDS011;1100;52.014;8.540;2023-02-15T14:20:21;16.57;;;7.70;;
2187;SDS011;1100;52.014;8.540;2023-02-15T14:25:41;15.93;;;7.30;;
2187;SDS011;1100;52.014;8.540;2023-02-15T14:28:19;17.33;;;7.57;;
2187;SDS011;1100;52.014;8.540;2023-02-15T14:30:58;15.80;;;7.70;;
2187;SDS011;1100;52.014;8.540;2023-02-15T14:33:59;16.92;;;8.18;;
2187;SDS011;1100;52.014;8.540;2023-02-15T14:36:19;15.02;;;7.88;;
2187;SDS011;1100;52.014;8.540;2023-02-15T14:41:37;17.40;;;8.70;;
2187;SDS011;1100;52.014;8.540;2023-02-15T14:47:05;14.70;;;7.93;;
2187;SDS011;1100;52.014;8.540;2023-02-15T14:49:36;14.00;;;7.47;;
2187;SDS011;1100;52.014;8.540;2023-02-15T14:52:03;15.88;;;7.63;;
2187;SDS011;1100;52.014;8.540;2023-02-15T15:04:57;15.57;;;7.30;;
2187;SDS011;1100;52.014;8.540;2023-02-15T15:07:24;15.43;;;7.80;;
2187;SDS011;1100;52.014;8.540;2023-02-15T15:10:33;17.17;;;8.32;;
2187;SDS011;1100;52.014;8.540;2023-02-15T15:17:53;18.70;;;8.43;;
2187;SDS011;1100;52.014;8.540;2023-02-15T15:22:50;16.52;;;7.95;;
2187;SDS011;1100;52.014;8.540;2023-02-15T15:28:02;13.73;;;7.47;;
2187;SDS011;1100;52.014;8.540;2023-02-15T15:40:42;16.20;;;8.10;;
2187;SDS011;1100;52.014;8.540;2023-02-15T15:46:25;18.70;;;7.95;;
2187;SDS011;1100;52.014;8.540;2023-02-15T15:49:15;20.35;;;8.60;;
2187;SDS011;1100;52.014;8.540;2023-02-15T15:51:43;15.27;;;7.63;;
2187;SDS011;1100;52.014;8.540;2023-02-15T15:54:17;16.13;;;7.65;;
2187;SDS011;1100;52.014;8.540;2023-02-15T15:56:47;16.17;;;8.07;;
2187;SDS011;1100;52.014;8.540;2023-02-15T15:59:18;19.00;;;8.07;;
2187;SDS011;1100;52.014;8.540;2023-02-15T16:01:46;16.45;;;8.00;;
2187;SDS011;1100;52.014;8.540;2023-02-15T16:04:13;17.37;;;8.00;;
2187;SDS011;1100;52.014;8.540;2023-02-15T16:06:49;18.05;;;8.30;;
2187;SDS011;1100;52.014;8.540;2023-02-15T16:09:21;18.93;;;8.37;;
2187;SDS011;1100;52.014;8.540;2023-02-15T16:11:55;15.82;;;7.75;;
2187;SDS011;1100;52.014;8.540;2023-02-15T16:17:00;19.08;;;8.48;;
2187;SDS011;1100;52.014;8.540;2023-02-15T16:19:29;20.67;;;8.33;;
2187;SDS011;1100;52.014;8.540;2023-02-15T16:21:58;17.52;;;7.68;;
2187;SDS011;1100;52.014;8.540;2023-02-15T16:27:09;16.60;;;7.88;;
2187;SDS011;1100;52.014;8.540;2023-02-15T16:30:17;17.95;;;7.82;;
2187;SDS011;1100;52.014;8.540;2023-02-15T16:32:55;21.47;;;8.27;;
2187;SDS011;1100;52.014;8.540;2023-02-15T16:35:34;19.00;;;7.47;;
2187;SDS011;1100;52.014;8.540;2023-02-15T16:38:00;18.98;;;8.25;;
2187;SDS011;1100;52.014;8.540;2023-02-15T16:40:30;19.35;;;8.40;;
2187;SDS011;1100;52.014;8.540;2023-02-15T16:43:02;17.90;;;7.68;;
2187;SDS011;1100;52.014;8.540;2023-02-15T16:45:32;18.47;;;8.13;;
2187;SDS011;1100;52.014;8.540;2023-02-15T16:48:01;18.90;;;7.60;;
2187;SDS011;1100;52.014;8.540;2023-02-15T16:50:34;17.80;;;7.80;;
2187;SDS011;1100;52.014;8.540;2023-02-15T16:53:02;18.35;;;8.00;;
2187;SDS011;1100;52.014;8.540;2023-02-15T16:55:33;19.50;;;7.88;;
2187;SDS011;1100;52.014;8.540;2023-02-15T16:58:04;18.20;;;8.00;;
2187;SDS011;1100;52.014;8.540;2023-02-15T17:00:33;18.50;;;7.80;;
2187;SDS011;1100;52.014;8.540;2023-02-15T17:03:05;18.50;;;7.93;;
2187;SDS011;1100;52.014;8.540;2023-02-15T17:08:18;17.40;;;7.88;;
2187;SDS011;1100;52.014;8.540;2023-02-15T17:11:33;16.87;;;7.60;;
2187;SDS011;1100;52.014;8.540;2023-02-15T17:16:35;19.02;;;8.15;;
2187;SDS011;1100;52.014;8.540;2023-02-15T17:19:09;17.20;;;8.30;;
2187;SDS011;1100;52.014;8.540;2023-02-15T17:21:41;16.08;;;7.57;;
2187;SDS011;1100;52.014;8.540;2023-02-15T17:24:18;18.00;;;7.93;;
2187;SDS011;1100;52.014;8.540;2023-02-15T17:26:50;18.15;;;7.97;;
2187;SDS011;1100;52.014;8.540;2023-02-15T17:29:37;17.27;;;7.88;;
2187;SDS011;1100;52.014;8.540;2023-02-15T17:32:06;22.45;;;8.82;;
2187;SDS011;1100;52.014;8.540;2023-02-15T17:37:51;16.90;;;8.43;;
2187;SDS011;1100;52.014;8.540;2023-02-15T17:39:57;21.02;;;9.35;;
2187;SDS011;1100;52.014;8.540;2023-02-15T17:42:24;19.27;;;8.88;;
2187;SDS011;1100;52.014;8.540;2023-02-15T17:44:50;20.50;;;9.10;;
2187;SDS011;1100;52.014;8.540;2023-02-15T17:47:17;17.70;;;8.73;;
2187;SDS011;1100;52.014;8.540;2023-02-15T17:49:44;17.63;;;8.40;;
2187;SDS011;1100;52.014;8.540;2023-02-15T17:52:13;20.92;;;8.55;;
2187;SDS011;1100;52.014;8.540;2023-02-15T17:54:40;20.87;;;8.80;;
2187;SDS011;1100;52.014;8.540;2023-02-15T17:57:25;23.45;;;8.35;;
2187;SDS011;1100;52.014;8.540;2023-02-15T17:59:50;19.45;;;8.82;;
2187;SDS011;1100;52.014;8.540;2023-02-15T18:02:35;22.02;;;9.00;;
2187;SDS011;1100;52.014;8.540;2023-02-15T18:05:19;18.43;;;8.33;;
2187;SDS011;1100;52.014;8.540;2023-02-15T18:08:04;20.30;;;8.02;;
2187;SDS011;1100;52.014;8.540;2023-02-15T18:10:53;22.45;;;8.60;;
2187;SDS011;1100;52.014;8.540;2023-02-15T18:13:37;21.77;;;8.80;;
2187;SDS011;1100;52.014;8.540;2023-02-15T18:16:03;18.43;;;9.03;;
2187;SDS011;1100;52.014;8.540;2023-02-15T18:18:28;18.47;;;8.73;;
2187;SDS011;1100;52.014;8.540;2023-02-15T18:20:53;21.63;;;9.33;;
2187;SDS011;1100;52.014;8.540;2023-02-15T18:23:19;22.27;;;9.40;;
2187;SDS011;1100;52.014;8.540;2023-02-15T18:25:44;22.30;;;9.00;;
2187;SDS011;1100;52.014;8.540;2023-02-15T18:28:10;22.53;;;9.77;;
2187;SDS011;1100;52.014;8.540;2023-02-15T18:30:35;20.93;;;9.33;;
2187;SDS011;1100;52.014;8.540;2023-02-15T18:33:09;22.20;;;9.45;;